createdAt,value
2019-01-06T00:02:20.262Z,76.90
2019-01-06T00:05:15.810Z,76.80
2019-01-06T00:08:05.707Z,76.80
2019-01-06T00:10:55.274Z,76.80
2019-01-06T00:13:58.689Z,76.70
2019-01-06T00:16:51.748Z,76.20
2019-01-06T00:19:50.974Z,76.10
2019-01-06T00:22:36.680Z,76.10
2019-01-06T00:25:26.480Z,76.10
2019-01-06T00:28:14.540Z,76.20
2019-01-06T00:31:13.671Z,76.10
2019-01-06T00:33:59.338Z,76.70
2019-01-06T00:36:45.129Z,76.00
2019-01-06T00:39:30.829Z,75.90
2019-01-06T00:42:16.217Z,75.80
2019-01-06T00:44:59.380Z,75.70
2019-01-06T00:47:35.549Z,75.80
2019-01-06T00:50:17.598Z,76.00
2019-01-06T00:53:03.275Z,75.80
2019-01-06T00:55:48.845Z,75.80
2019-01-06T00:58:38.687Z,75.70
2019-01-06T01:01:16.359Z,75.70
2019-01-06T01:04:12.186Z,75.70
2019-01-06T01:07:07.983Z,75.60
2019-01-06T01:10:07.915Z,75.40
2019-01-06T01:13:00.553Z,75.20
2019-01-06T01:16:02.721Z,75.20
2019-01-06T01:18:48.114Z,75.30
2019-01-06T01:21:40.793Z,75.20
2019-01-06T01:24:36.908Z,75.50
2019-01-06T01:27:39.327Z,75.50
2019-01-06T01:30:33.619Z,75.40
2019-01-06T01:33:12.971Z,75.60
2019-01-06T01:35:58.929Z,76.40
2019-01-06T01:38:49.594Z,75.60
2019-01-06T01:41:32.774Z,75.40
2019-01-06T01:44:35.178Z,75.70
2019-01-06T01:47:22.123Z,75.70
2019-01-06T01:50:07.895Z,75.60
2019-01-06T01:52:53.710Z,75.70
2019-01-06T01:55:59.099Z,75.60
2019-01-06T01:58:45.989Z,75.70
2019-01-06T02:01:31.904Z,75.90
2019-01-06T02:04:19.226Z,76.00
2019-01-06T02:06:58.694Z,76.20
2019-01-06T02:09:51.615Z,76.30
2019-01-06T02:12:41.298Z,76.20
2019-01-06T02:15:37.355Z,76.20
2019-01-06T02:18:23.067Z,76.10
2019-01-06T02:21:09.741Z,76.10
2019-01-06T02:24:02.809Z,76.10
2019-01-06T02:26:43.466Z,76.20
2019-01-06T02:29:31.194Z,76.10
2019-01-06T02:32:10.170Z,76.20
2019-01-06T02:34:56.795Z,76.10
2019-01-06T02:37:42.460Z,76.10
2019-01-06T02:40:28.509Z,76.10
2019-01-06T02:43:21.313Z,76.20
2019-01-06T02:46:07.311Z,76.30
2019-01-06T02:48:57.163Z,76.30
2019-01-06T02:51:59.306Z,76.30
2019-01-06T02:54:46.183Z,76.50
2019-01-06T02:57:32.207Z,76.40
2019-01-06T03:00:25.134Z,76.30
2019-01-06T03:03:21.501Z,76.40
2019-01-06T03:06:17.809Z,77.10
2019-01-06T03:09:03.454Z,76.40
2019-01-06T03:11:55.494Z,76.30
2019-01-06T03:14:42.421Z,76.30
2019-01-06T03:17:21.406Z,76.00
2019-01-06T03:20:12.374Z,76.40
2019-01-06T03:22:57.877Z,76.30
2019-01-06T03:25:49.023Z,76.20
2019-01-06T03:28:34.656Z,76.20
2019-01-06T03:31:30.179Z,76.20
2019-01-06T03:34:17.228Z,76.30
2019-01-06T03:37:03.124Z,76.40
2019-01-06T03:39:49.202Z,76.30
2019-01-06T03:42:30.935Z,76.30
2019-01-06T03:45:16.753Z,76.40
2019-01-06T03:48:03.080Z,76.40
2019-01-06T03:50:49.602Z,76.30
2019-01-06T03:53:35.205Z,76.10
2019-01-06T03:56:20.874Z,76.30
2019-01-06T03:59:04.996Z,76.30
2019-01-06T04:01:54.557Z,76.40
2019-01-06T04:05:00.352Z,76.60
2019-01-06T04:08:02.521Z,76.60
2019-01-06T04:10:43.641Z,76.50
2019-01-06T04:13:30.450Z,76.40
2019-01-06T04:16:12.925Z,76.40
2019-01-06T04:18:58.748Z,76.30
2019-01-06T04:21:38.841Z,76.20
2019-01-06T04:24:39.533Z,76.00
2019-01-06T04:27:41.898Z,76.10
2019-01-06T04:30:37.933Z,76.20
2019-01-06T04:33:23.525Z,76.10
2019-01-06T04:36:14.061Z,76.20
2019-01-06T04:39:01.040Z,76.30
2019-01-06T04:41:47.213Z,76.10
2019-01-06T04:44:43.454Z,76.10
2019-01-06T04:47:29.804Z,76.30
2019-01-06T04:50:19.655Z,76.60
2019-01-06T04:53:19.318Z,76.00
2019-01-06T04:56:06.360Z,75.90
2019-01-06T04:58:59.057Z,75.80
2019-01-06T05:01:49.070Z,75.90
2019-01-06T05:04:35.275Z,75.90
2019-01-06T05:07:14.460Z,75.90
2019-01-06T05:10:13.343Z,75.90
2019-01-06T05:13:08.794Z,76.00
2019-01-06T05:15:51.034Z,76.00
2019-01-06T05:18:43.591Z,76.00
2019-01-06T05:21:42.378Z,75.90
2019-01-06T05:24:31.723Z,75.90
2019-01-06T05:27:17.476Z,75.70
2019-01-06T05:30:04.541Z,75.60
2019-01-06T05:32:51.157Z,75.80
2019-01-06T05:35:56.298Z,75.90
2019-01-06T05:38:55.318Z,75.60
2019-01-06T05:41:45.059Z,75.70
2019-01-06T05:44:35.170Z,75.70
2019-01-06T05:47:28.096Z,76.10
2019-01-06T05:50:14.924Z,75.70
2019-01-06T05:53:00.318Z,75.70
2019-01-06T05:55:50.268Z,75.60
2019-01-06T05:58:37.289Z,75.60
2019-01-06T06:01:24.269Z,75.60
2019-01-06T06:04:09.956Z,75.40
2019-01-06T06:07:11.051Z,75.30
2019-01-06T06:09:50.462Z,75.30
2019-01-06T06:12:35.962Z,75.40
2019-01-06T06:15:25.910Z,75.20
2019-01-06T06:18:16.066Z,75.30
2019-01-06T06:21:02.984Z,75.20
2019-01-06T06:24:01.986Z,75.10
2019-01-06T06:26:54.680Z,75.10
2019-01-06T06:29:40.031Z,74.90
2019-01-06T06:32:25.687Z,74.90
2019-01-06T06:35:18.466Z,74.90
2019-01-06T06:38:10.591Z,75.00
2019-01-06T06:41:09.488Z,74.70
2019-01-06T06:44:06.772Z,74.60
2019-01-06T06:46:56.479Z,74.60
2019-01-06T06:49:41.914Z,74.50
2019-01-06T06:52:27.586Z,74.50
2019-01-06T06:55:19.993Z,74.50
2019-01-06T06:58:42.447Z,74.50
2019-01-06T07:02:00.528Z,74.50
2019-01-06T07:04:46.592Z,74.60
2019-01-06T07:07:42.376Z,74.60
2019-01-06T07:10:27.800Z,74.60
2019-01-06T07:13:18.322Z,74.50
2019-01-06T07:16:13.529Z,74.50
2019-01-06T07:18:59.204Z,74.50
2019-01-06T07:21:44.379Z,74.60
2019-01-06T07:24:43.414Z,74.70
2019-01-06T07:27:46.490Z,74.70
2019-01-06T07:30:45.868Z,74.80
2019-01-06T07:33:20.914Z,74.80
2019-01-06T07:36:16.236Z,74.60
2019-01-06T07:39:09.242Z,75.00
2019-01-06T07:41:53.816Z,75.00
2019-01-06T07:44:41.072Z,74.90
2019-01-06T07:47:33.024Z,75.00
2019-01-06T07:50:20.141Z,74.90
2019-01-06T07:53:10.148Z,75.00
2019-01-06T07:55:58.189Z,75.10
2019-01-06T07:58:43.889Z,75.20
2019-01-06T08:01:33.307Z,75.10
2019-01-06T08:04:23.051Z,75.10
2019-01-06T08:07:12.920Z,75.20
2019-01-06T08:10:12.694Z,75.00
2019-01-06T08:13:02.869Z,75.00
2019-01-06T08:15:48.205Z,74.90
2019-01-06T08:18:33.437Z,75.00
2019-01-06T08:21:35.405Z,74.90
2019-01-06T08:24:33.614Z,74.80
2019-01-06T08:27:20.617Z,74.80
2019-01-06T08:30:04.897Z,74.80
2019-01-06T08:32:49.613Z,74.80
2019-01-06T08:35:48.398Z,74.80
2019-01-06T08:38:38.454Z,74.80
2019-01-06T08:41:24.097Z,74.70
2019-01-06T08:44:09.807Z,74.50
2019-01-06T08:47:05.284Z,74.50
2019-01-06T08:49:51.133Z,74.60
2019-01-06T08:52:56.635Z,74.60
2019-01-06T08:55:46.934Z,74.50
2019-01-06T08:58:26.436Z,74.60
2019-01-06T09:01:12.180Z,74.50
2019-01-06T09:04:04.939Z,74.60
2019-01-06T09:07:01.347Z,74.60
2019-01-06T09:09:54.755Z,74.50
2019-01-06T09:12:47.630Z,74.30
2019-01-06T09:15:47.432Z,74.20
2019-01-06T09:18:52.902Z,73.90
2019-01-06T09:21:42.605Z,73.80
2019-01-06T09:24:41.601Z,73.70
2019-01-06T09:27:26.871Z,73.90
2019-01-06T09:30:13.189Z,74.10
2019-01-06T09:32:55.803Z,74.20
2019-01-06T09:35:51.878Z,74.30
2019-01-06T09:38:47.850Z,74.20
2019-01-06T09:41:37.202Z,74.10
2019-01-06T09:44:30.134Z,74.20
2019-01-06T09:47:10.262Z,74.10
2019-01-06T09:50:06.035Z,74.00
2019-01-06T09:52:52.763Z,73.90
2019-01-06T09:55:47.141Z,74.00
2019-01-06T09:58:51.096Z,74.10
2019-01-06T10:01:53.568Z,74.10
2019-01-06T10:04:43.752Z,74.40
2019-01-06T10:07:30.590Z,74.20
2019-01-06T10:10:17.015Z,74.10
2019-01-06T10:13:02.874Z,74.10
2019-01-06T10:15:55.310Z,73.60
2019-01-06T10:18:49.546Z,73.60
2019-01-06T10:21:28.701Z,73.70
2019-01-06T10:24:15.441Z,74.00
2019-01-06T10:27:04.596Z,73.90
2019-01-06T10:29:57.386Z,73.80
2019-01-06T10:32:42.866Z,73.80
2019-01-06T10:35:29.064Z,73.60
2019-01-06T10:38:25.360Z,73.70
2019-01-06T10:41:15.322Z,73.70
2019-01-06T10:46:54.324Z,73.70
2019-01-06T10:49:50.518Z,74.00
2019-01-06T10:52:36.221Z,73.80
2019-01-06T10:55:17.763Z,74.00
2019-01-06T10:58:07.040Z,74.30
2019-01-06T11:01:02.967Z,74.20
2019-01-06T11:03:59.060Z,74.10
2019-01-06T11:06:46.063Z,73.50
2019-01-06T11:09:31.436Z,73.70
2019-01-06T11:12:17.001Z,73.60
2019-01-06T11:15:19.528Z,73.60
2019-01-06T11:18:09.278Z,73.70
2019-01-06T11:21:05.346Z,73.80
2019-01-06T11:23:57.673Z,73.90
2019-01-06T11:54:53.465Z,82.10
2019-01-06T11:57:38.814Z,85.60
2019-01-06T12:00:44.289Z,85.20
2019-01-06T12:03:31.177Z,85.00
2019-01-06T12:06:16.538Z,85.00
2019-01-06T12:09:12.607Z,85.40
2019-01-06T12:11:59.216Z,86.20
2019-01-06T12:14:44.698Z,86.40
2019-01-06T12:17:40.404Z,86.60
2019-01-06T12:20:30.244Z,86.70
2019-01-06T12:23:20.435Z,86.40
2019-01-06T12:26:25.859Z,86.30
2019-01-06T12:29:15.631Z,86.50
2019-01-06T12:32:05.450Z,86.10
2019-01-06T12:34:53.930Z,86.40
2019-01-06T12:37:40.824Z,86.30
2019-01-06T12:40:28.084Z,86.50
2019-01-06T12:43:23.857Z,86.90
2019-01-06T12:46:25.121Z,87.00
2019-01-06T12:49:29.246Z,87.20
2019-01-06T12:52:23.273Z,87.00
2019-01-06T12:55:04.955Z,87.10
2019-01-06T12:57:51.528Z,86.80
2019-01-06T13:00:37.295Z,86.30
2019-01-06T13:03:24.369Z,86.00
2019-01-06T13:06:13.877Z,86.10
2019-01-06T13:08:59.593Z,87.20
2019-01-06T13:11:52.375Z,86.20
2019-01-06T13:14:38.217Z,86.50
2019-01-06T13:17:44.147Z,86.40
2019-01-06T13:20:30.045Z,86.60
2019-01-06T13:23:15.796Z,86.00
2019-01-06T13:26:14.970Z,86.30
2019-01-06T13:29:16.639Z,86.00
2019-01-06T13:32:18.801Z,85.80
2019-01-06T13:35:04.305Z,85.70
2019-01-06T13:37:54.734Z,85.50
2019-01-06T13:41:03.138Z,85.60
2019-01-06T13:43:43.169Z,85.50
2019-01-06T13:46:31.023Z,85.50
2019-01-06T13:49:33.383Z,85.60
2019-01-06T13:52:19.108Z,85.40
2019-01-06T13:55:13.922Z,84.80
2019-01-06T13:57:59.804Z,84.50
2019-01-06T14:00:43.987Z,84.40
2019-01-06T14:03:40.128Z,84.40
2019-01-06T14:06:34.757Z,84.60
2019-01-06T14:09:24.655Z,84.60
2019-01-06T14:12:12.265Z,84.60
2019-01-06T14:15:06.341Z,85.00
2019-01-06T14:18:05.697Z,84.70
2019-01-06T14:21:04.935Z,84.90
2019-01-06T14:23:49.055Z,85.30
2019-01-06T14:27:04.381Z,85.20
2019-01-06T14:29:51.366Z,85.10
2019-01-06T14:32:27.961Z,85.30
2019-01-06T14:35:14.382Z,86.50
2019-01-06T14:38:00.038Z,85.60
2019-01-06T14:40:45.434Z,85.90
2019-01-06T14:43:30.905Z,86.00
2019-01-06T14:46:24.737Z,86.20
2019-01-06T14:49:27.936Z,86.60
2019-01-06T14:52:18.117Z,87.90
2019-01-06T14:55:22.966Z,87.40
2019-01-06T14:58:09.023Z,87.40
2019-01-06T15:00:55.480Z,87.80
2019-01-06T15:03:43.541Z,88.40
2019-01-06T15:06:30.458Z,88.50
2019-01-06T15:09:26.284Z,88.30
2019-01-06T15:12:13.276Z,88.40
2019-01-06T15:14:59.303Z,88.40
2019-01-06T15:17:48.867Z,88.50
2019-01-06T15:20:34.246Z,87.90
2019-01-06T15:23:30.082Z,87.80
2019-01-06T15:26:15.754Z,87.50
2019-01-06T15:28:56.729Z,87.60
2019-01-06T15:31:43.812Z,87.60
2019-01-06T15:34:23.862Z,88.00
2019-01-06T15:37:11.983Z,88.00
2019-01-06T15:39:57.416Z,87.60
2019-01-06T15:42:43.121Z,88.40
2019-01-06T15:45:28.571Z,87.40
2019-01-06T15:48:27.727Z,87.40
2019-01-06T15:51:12.925Z,87.10
2019-01-06T15:53:59.696Z,86.70
2019-01-06T15:57:01.557Z,86.40
2019-01-06T15:59:48.538Z,86.70
2019-01-06T16:02:31.147Z,86.70
2019-01-06T16:05:16.741Z,86.40
2019-01-06T16:08:02.052Z,86.30
2019-01-06T16:11:08.606Z,86.70
2019-01-06T16:14:01.509Z,85.90
2019-01-06T16:16:56.112Z,86.00
2019-01-06T16:19:41.816Z,86.50
2019-01-06T16:22:27.102Z,86.50
2019-01-06T16:25:06.256Z,87.00
2019-01-06T16:28:11.617Z,86.10
2019-01-06T16:31:07.644Z,85.70
2019-01-06T16:33:58.379Z,85.60
2019-01-06T16:36:44.426Z,85.80
2019-01-06T16:39:43.083Z,86.00
2019-01-06T16:42:28.811Z,86.00
2019-01-06T16:45:28.145Z,86.40
2019-01-06T16:48:15.239Z,86.80
2019-01-06T16:51:21.434Z,87.30
2019-01-06T16:54:11.168Z,87.50
2019-01-06T16:56:59.321Z,88.00
2019-01-06T16:59:45.029Z,88.00
2019-01-06T17:02:37.684Z,88.10
2019-01-06T17:05:20.243Z,88.40
2019-01-06T17:08:06.949Z,88.60
2019-01-06T17:11:00.577Z,89.20
2019-01-06T17:13:50.485Z,89.40
2019-01-06T17:16:38.378Z,89.20
2019-01-06T17:19:21.100Z,89.40
2019-01-06T17:22:11.225Z,88.40
2019-01-06T17:24:56.439Z,88.10
2019-01-06T17:27:41.753Z,87.70
2019-01-06T17:30:47.178Z,87.60
2019-01-06T17:33:45.004Z,87.60
2019-01-06T17:36:30.715Z,88.00
2019-01-06T17:39:21.435Z,88.10
2019-01-06T17:42:08.398Z,88.20
2019-01-06T17:45:03.359Z,88.40
2019-01-06T17:47:49.225Z,88.80
2019-01-06T17:50:34.345Z,89.30
2019-01-06T17:53:24.652Z,89.80
2019-01-06T17:56:26.372Z,90.00
2019-01-06T17:59:17.082Z,90.20
2019-01-06T18:01:56.536Z,90.30
2019-01-06T18:04:46.402Z,90.40
2019-01-06T18:07:39.338Z,90.20
2019-01-06T18:10:35.183Z,90.30
2019-01-06T18:13:23.350Z,90.40
2019-01-06T18:16:12.925Z,90.60
2019-01-06T18:18:58.705Z,90.80
2019-01-06T18:21:45.456Z,91.00
2019-01-06T18:24:31.364Z,91.10
2019-01-06T18:27:21.229Z,91.20
2019-01-06T18:30:08.995Z,91.20
2019-01-06T18:33:08.085Z,91.40
2019-01-06T18:36:01.143Z,91.20
2019-01-06T18:38:54.179Z,91.20
2019-01-06T18:41:46.841Z,91.20
2019-01-06T18:44:44.047Z,91.50
2019-01-06T18:47:31.153Z,91.50
2019-01-06T18:50:33.419Z,91.60
2019-01-06T18:53:19.205Z,91.60
2019-01-06T18:56:14.616Z,91.60
2019-01-06T18:59:01.340Z,91.60
2019-01-06T19:01:42.352Z,91.60
2019-01-06T19:04:28.061Z,91.40
2019-01-06T19:07:15.866Z,91.20
2019-01-06T19:10:03.355Z,91.00
2019-01-06T19:12:49.427Z,90.90
2019-01-06T19:15:45.606Z,90.80
2019-01-06T19:18:29.169Z,90.70
2019-01-06T19:21:14.748Z,90.60
2019-01-06T19:24:00.392Z,90.50
2019-01-06T19:26:46.835Z,90.30
2019-01-06T19:29:32.533Z,90.20
2019-01-06T19:32:18.447Z,90.50
2019-01-06T19:35:20.874Z,91.00
2019-01-06T19:38:00.849Z,91.00
2019-01-06T19:40:46.399Z,90.80
2019-01-06T19:43:42.561Z,90.80
2019-01-06T19:46:41.754Z,90.80
2019-01-06T19:49:31.393Z,90.90
2019-01-06T19:52:17.345Z,91.00
2019-01-06T19:55:03.092Z,91.00
2019-01-06T19:58:05.232Z,91.00
2019-01-06T20:00:50.793Z,91.10
2019-01-06T20:03:33.237Z,91.10
2019-01-06T20:06:23.410Z,91.20
2019-01-06T20:09:09.392Z,91.20
2019-01-06T20:11:59.201Z,91.50
2019-01-06T20:14:52.186Z,91.50
2019-01-06T20:17:37.858Z,91.50
2019-01-06T20:20:25.188Z,91.30
2019-01-06T20:23:09.929Z,91.30
2019-01-06T20:25:55.998Z,91.30
2019-01-06T20:28:40.196Z,91.30
2019-01-06T20:31:35.374Z,91.20
2019-01-06T20:34:22.314Z,91.30
2019-01-06T20:37:18.378Z,91.40
2019-01-06T20:40:04.425Z,91.50
2019-01-06T20:42:54.989Z,91.20
2019-01-06T20:45:41.168Z,91.30
2019-01-06T20:48:58.590Z,91.20
2019-01-06T20:52:41.433Z,91.10
2019-01-06T20:55:23.299Z,90.90
2019-01-06T20:58:13.243Z,91.30
2019-01-06T21:01:00.821Z,91.00
2019-01-06T21:03:51.017Z,90.70
2019-01-06T21:06:35.796Z,90.90
2019-01-06T21:09:27.473Z,90.80
2019-01-06T21:12:29.645Z,90.80
2019-01-06T21:15:19.320Z,91.00
2019-01-06T21:18:05.118Z,90.90
2019-01-06T21:20:54.362Z,90.90
2019-01-06T21:23:47.442Z,90.70
2019-01-06T21:26:36.369Z,90.70
2019-01-06T21:29:25.215Z,90.70
2019-01-06T21:32:15.115Z,90.70
2019-01-06T21:35:05.040Z,90.80
2019-01-06T21:38:04.879Z,91.10
2019-01-06T21:40:54.397Z,90.80
2019-01-06T21:43:37.425Z,91.10
2019-01-06T21:46:30.137Z,90.90
2019-01-06T21:49:15.761Z,90.80
2019-01-06T21:51:53.130Z,90.60
2019-01-06T21:54:38.294Z,90.50
2019-01-06T21:57:22.385Z,90.30
2019-01-06T22:00:01.822Z,90.40
2019-01-06T22:02:47.516Z,90.40
2019-01-06T22:05:33.573Z,90.50
2019-01-06T22:08:19.251Z,90.60
2019-01-06T22:11:06.217Z,90.90
2019-01-06T22:13:53.141Z,90.70
2019-01-06T22:16:40.165Z,90.80
2019-01-06T22:19:41.868Z,90.60
2019-01-06T22:22:28.972Z,90.40
2019-01-06T22:25:23.569Z,90.50
2019-01-06T22:28:09.050Z,90.70
2019-01-06T22:30:55.019Z,90.00
2019-01-06T22:33:44.479Z,90.00
2019-01-06T22:36:44.153Z,89.30
2019-01-06T22:39:36.768Z,89.60
2019-01-06T22:42:22.773Z,88.90
2019-01-06T22:45:19.101Z,89.60
2019-01-06T22:48:04.602Z,89.20
2019-01-06T22:50:57.306Z,88.80
2019-01-06T22:53:42.865Z,88.50
2019-01-06T22:56:41.401Z,88.10
2019-01-06T22:59:26.996Z,88.00
2019-01-06T23:02:12.722Z,89.10
2019-01-06T23:05:00.093Z,88.10
2019-01-06T23:07:56.314Z,88.50
2019-01-06T23:10:58.221Z,88.90
2019-01-06T23:13:57.189Z,88.80
2019-01-06T23:16:47.373Z,88.90
2019-01-06T23:19:34.282Z,88.60
2019-01-06T23:22:15.968Z,88.40
2019-01-06T23:25:02.475Z,88.40
2019-01-06T23:27:49.237Z,87.80
2019-01-06T23:30:35.263Z,87.30
2019-01-06T23:33:40.765Z,87.70
2019-01-06T23:36:27.532Z,87.50
2019-01-06T23:39:13.126Z,87.30
2019-01-06T23:41:59.149Z,87.90
2019-01-06T23:44:44.512Z,88.10
2019-01-06T23:47:40.045Z,88.20
2019-01-06T23:50:25.688Z,88.30
2019-01-06T23:53:11.493Z,88.00
2019-01-06T23:55:57.384Z,88.10
2019-01-06T23:58:47.258Z,88.00
